sensor_id;sensor_type;location;lat;lon;timestamp;P1;durP1;ratioP1;P2;durP2;ratioP2
27985;SDS011;15453;53.692;10.168;2023-05-23T00:00:55;10.30;;;7.90;;
27985;SDS011;15453;53.692;10.168;2023-05-23T00:03:22;7.93;;;7.10;;
27985;SDS011;15453;53.692;10.168;2023-05-23T00:05:50;8.95;;;7.85;;
27985;SDS011;15453;53.692;10.168;2023-05-23T00:08:16;9.45;;;7.72;;
27985;SDS011;15453;53.692;10.168;2023-05-23T00:10:42;9.02;;;7.85;;
27985;SDS011;15453;53.692;10.168;2023-05-23T00:13:08;8.95;;;8.05;;
27985;SDS011;15453;53.692;10.168;2023-05-23T00:15:33;11.45;;;7.82;;
27985;SDS011;15453;53.692;10.168;2023-05-23T00:18:01;8.45;;;7.53;;
27985;SDS011;15453;53.692;10.168;2023-05-23T00:20:26;9.55;;;7.78;;
27985;SDS011;15453;53.692;10.168;2023-05-23T00:22:52;8.80;;;7.20;;
27985;SDS011;15453;53.692;10.168;2023-05-23T00:25:18;8.90;;;7.57;;
27985;SDS011;15453;53.692;10.168;2023-05-23T00:27:45;9.60;;;7.80;;
27985;SDS011;15453;53.692;10.168;2023-05-23T00:30:11;9.55;;;7.13;;
27985;SDS011;15453;53.692;10.168;2023-05-23T00:32:36;10.15;;;8.13;;
27985;SDS011;15453;53.692;10.168;2023-05-23T00:35:02;16.00;;;8.13;;
27985;SDS011;15453;53.692;10.168;2023-05-23T00:37:27;9.43;;;7.85;;
27985;SDS011;15453;53.692;10.168;2023-05-23T00:39:52;12.52;;;7.03;;
27985;SDS011;15453;53.692;10.168;2023-05-23T00:42:18;9.65;;;7.40;;
27985;SDS011;15453;53.692;10.168;2023-05-23T00:44:43;8.50;;;7.63;;
27985;SDS011;15453;53.692;10.168;2023-05-23T00:47:08;9.13;;;7.45;;
27985;SDS011;15453;53.692;10.168;2023-05-23T00:49:35;9.20;;;6.65;;
27985;SDS011;15453;53.692;10.168;2023-05-23T00:52:00;9.38;;;7.50;;
27985;SDS011;15453;53.692;10.168;2023-05-23T00:54:27;8.20;;;7.22;;
27985;SDS011;15453;53.692;10.168;2023-05-23T00:56:55;8.10;;;6.73;;
27985;SDS011;15453;53.692;10.168;2023-05-23T00:59:20;7.25;;;6.47;;
27985;SDS011;15453;53.692;10.168;2023-05-23T01:01:48;8.73;;;7.03;;
27985;SDS011;15453;53.692;10.168;2023-05-23T01:04:15;7.38;;;6.63;;
27985;SDS011;15453;53.692;10.168;2023-05-23T01:06:40;9.25;;;7.80;;
27985;SDS011;15453;53.692;10.168;2023-05-23T01:09:06;8.88;;;7.53;;
27985;SDS011;15453;53.692;10.168;2023-05-23T01:11:42;7.88;;;6.47;;
27985;SDS011;15453;53.692;10.168;2023-05-23T01:14:11;9.38;;;7.70;;
27985;SDS011;15453;53.692;10.168;2023-05-23T01:16:46;8.45;;;7.55;;
27985;SDS011;15453;53.692;10.168;2023-05-23T01:25:27;7.72;;;6.93;;
27985;SDS011;15453;53.692;10.168;2023-05-23T01:28:11;7.60;;;6.88;;
27985;SDS011;15453;53.692;10.168;2023-05-23T01:30:40;7.72;;;6.75;;
27985;SDS011;15453;53.692;10.168;2023-05-23T01:33:08;9.30;;;7.18;;
27985;SDS011;15453;53.692;10.168;2023-05-23T01:35:35;10.13;;;7.43;;
27985;SDS011;15453;53.692;10.168;2023-05-23T01:38:01;10.48;;;7.10;;
27985;SDS011;15453;53.692;10.168;2023-05-23T01:40:26;7.72;;;6.40;;
27985;SDS011;15453;53.692;10.168;2023-05-23T01:42:52;8.98;;;7.10;;
27985;SDS011;15453;53.692;10.168;2023-05-23T01:45:21;8.07;;;7.28;;
27985;SDS011;15453;53.692;10.168;2023-05-23T01:47:48;7.63;;;6.93;;
27985;SDS011;15453;53.692;10.168;2023-05-23T01:50:14;8.90;;;8.00;;
27985;SDS011;15453;53.692;10.168;2023-05-23T01:52:41;8.25;;;7.45;;
27985;SDS011;15453;53.692;10.168;2023-05-23T01:55:06;10.10;;;8.35;;
27985;SDS011;15453;53.692;10.168;2023-05-23T01:57:34;8.32;;;7.50;;
27985;SDS011;15453;53.692;10.168;2023-05-23T02:00:01;8.65;;;7.75;;
27985;SDS011;15453;53.692;10.168;2023-05-23T02:02:26;9.13;;;7.70;;
27985;SDS011;15453;53.692;10.168;2023-05-23T02:04:52;8.30;;;7.50;;
27985;SDS011;15453;53.692;10.168;2023-05-23T02:07:18;9.65;;;8.18;;
27985;SDS011;15453;53.692;10.168;2023-05-23T02:09:47;9.03;;;8.13;;
27985;SDS011;15453;53.692;10.168;2023-05-23T02:12:12;8.15;;;7.35;;
27985;SDS011;15453;53.692;10.168;2023-05-23T02:14:37;26.90;;;8.48;;
27985;SDS011;15453;53.692;10.168;2023-05-23T02:17:03;8.50;;;7.25;;
27985;SDS011;15453;53.692;10.168;2023-05-23T02:19:29;8.82;;;7.78;;
27985;SDS011;15453;53.692;10.168;2023-05-23T02:21:54;8.80;;;8.00;;
27985;SDS011;15453;53.692;10.168;2023-05-23T02:24:19;8.30;;;7.45;;
27985;SDS011;15453;53.692;10.168;2023-05-23T02:26:44;9.45;;;8.43;;
27985;SDS011;15453;53.692;10.168;2023-05-23T02:29:10;9.45;;;8.45;;
27985;SDS011;15453;53.692;10.168;2023-05-23T02:31:35;9.23;;;8.18;;
27985;SDS011;15453;53.692;10.168;2023-05-23T02:34:00;8.90;;;8.00;;
27985;SDS011;15453;53.692;10.168;2023-05-23T02:36:25;9.82;;;8.60;;
27985;SDS011;15453;53.692;10.168;2023-05-23T02:38:51;9.73;;;8.35;;
27985;SDS011;15453;53.692;10.168;2023-05-23T02:41:16;13.27;;;8.40;;
27985;SDS011;15453;53.692;10.168;2023-05-23T02:43:43;10.15;;;7.57;;
27985;SDS011;15453;53.692;10.168;2023-05-23T02:46:10;8.85;;;7.88;;
27985;SDS011;15453;53.692;10.168;2023-05-23T02:48:37;9.35;;;8.38;;
27985;SDS011;15453;53.692;10.168;2023-05-23T02:51:02;8.90;;;8.00;;
27985;SDS011;15453;53.692;10.168;2023-05-23T02:53:28;9.02;;;7.90;;
27985;SDS011;15453;53.692;10.168;2023-05-23T02:55:53;8.98;;;7.93;;
27985;SDS011;15453;53.692;10.168;2023-05-23T02:58:18;12.52;;;10.48;;
27985;SDS011;15453;53.692;10.168;2023-05-23T03:00:44;16.02;;;14.40;;
27985;SDS011;15453;53.692;10.168;2023-05-23T03:03:10;16.35;;;14.65;;
27985;SDS011;15453;53.692;10.168;2023-05-23T03:05:35;19.23;;;16.85;;
27985;SDS011;15453;53.692;10.168;2023-05-23T03:08:01;21.55;;;19.35;;
27985;SDS011;15453;53.692;10.168;2023-05-23T03:10:27;23.85;;;20.58;;
27985;SDS011;15453;53.692;10.168;2023-05-23T03:12:52;23.65;;;21.15;;
27985;SDS011;15453;53.692;10.168;2023-05-23T03:15:17;25.15;;;21.42;;
27985;SDS011;15453;53.692;10.168;2023-05-23T03:17:42;25.30;;;22.58;;
27985;SDS011;15453;53.692;10.168;2023-05-23T03:20:08;27.02;;;23.15;;
27985;SDS011;15453;53.692;10.168;2023-05-23T03:22:34;26.58;;;23.50;;
27985;SDS011;15453;53.692;10.168;2023-05-23T03:25:00;29.63;;;26.45;;
27985;SDS011;15453;53.692;10.168;2023-05-23T03:27:25;30.88;;;27.52;;
27985;SDS011;15453;53.692;10.168;2023-05-23T03:29:50;29.85;;;26.65;;
27985;SDS011;15453;53.692;10.168;2023-05-23T03:32:16;32.88;;;28.98;;
27985;SDS011;15453;53.692;10.168;2023-05-23T03:34:41;33.20;;;29.25;;
27985;SDS011;15453;53.692;10.168;2023-05-23T03:37:06;33.25;;;27.95;;
27985;SDS011;15453;53.692;10.168;2023-05-23T03:39:31;35.33;;;27.42;;
27985;SDS011;15453;53.692;10.168;2023-05-23T03:41:57;35.58;;;28.85;;
27985;SDS011;15453;53.692;10.168;2023-05-23T03:44:22;37.80;;;26.90;;
27985;SDS011;15453;53.692;10.168;2023-05-23T03:46:47;34.17;;;27.45;;
27985;SDS011;15453;53.692;10.168;2023-05-23T03:49:12;38.50;;;27.63;;
27985;SDS011;15453;53.692;10.168;2023-05-23T03:51:38;37.33;;;29.85;;
27985;SDS011;15453;53.692;10.168;2023-05-23T03:54:03;40.40;;;28.63;;
27985;SDS011;15453;53.692;10.168;2023-05-23T03:56:28;35.90;;;28.25;;
27985;SDS011;15453;53.692;10.168;2023-05-23T03:58:53;40.90;;;29.40;;
27985;SDS011;15453;53.692;10.168;2023-05-23T04:01:19;39.05;;;27.73;;
27985;SDS011;15453;53.692;10.168;2023-05-23T04:03:44;33.97;;;26.48;;
27985;SDS011;15453;53.692;10.168;2023-05-23T04:06:10;36.70;;;26.83;;
27985;SDS011;15453;53.692;10.168;2023-05-23T04:08:35;42.97;;;29.48;;
27985;SDS011;15453;53.692;10.168;2023-05-23T04:11:00;37.17;;;28.55;;
27985;SDS011;15453;53.692;10.168;2023-05-23T04:13:26;43.45;;;29.67;;
27985;SDS011;15453;53.692;10.168;2023-05-23T04:15:52;45.30;;;30.00;;
27985;SDS011;15453;53.692;10.168;2023-05-23T04:18:20;35.95;;;27.58;;
27985;SDS011;15453;53.692;10.168;2023-05-23T04:20:45;39.47;;;28.48;;
27985;SDS011;15453;53.692;10.168;2023-05-23T04:23:10;40.00;;;27.42;;
27985;SDS011;15453;53.692;10.168;2023-05-23T04:25:36;32.20;;;23.75;;
27985;SDS011;15453;53.692;10.168;2023-05-23T04:28:01;39.80;;;26.33;;
27985;SDS011;15453;53.692;10.168;2023-05-23T04:30:26;39.83;;;27.40;;
27985;SDS011;15453;53.692;10.168;2023-05-23T04:32:54;40.15;;;27.52;;
27985;SDS011;15453;53.692;10.168;2023-05-23T04:35:22;39.45;;;26.75;;
27985;SDS011;15453;53.692;10.168;2023-05-23T04:37:47;31.50;;;24.08;;
27985;SDS011;15453;53.692;10.168;2023-05-23T04:40:12;42.45;;;26.50;;
27985;SDS011;15453;53.692;10.168;2023-05-23T04:42:38;42.38;;;26.92;;
27985;SDS011;15453;53.692;10.168;2023-05-23T04:45:06;46.42;;;29.08;;
27985;SDS011;15453;53.692;10.168;2023-05-23T04:47:32;40.78;;;27.83;;
27985;SDS011;15453;53.692;10.168;2023-05-23T04:49:58;42.40;;;25.50;;
27985;SDS011;15453;53.692;10.168;2023-05-23T04:52:24;37.03;;;25.67;;
27985;SDS011;15453;53.692;10.168;2023-05-23T04:54:51;40.17;;;26.63;;
27985;SDS011;15453;53.692;10.168;2023-05-23T04:57:18;42.65;;;26.92;;
27985;SDS011;15453;53.692;10.168;2023-05-23T04:59:43;41.33;;;26.50;;
27985;SDS011;15453;53.692;10.168;2023-05-23T05:02:08;44.25;;;28.10;;
27985;SDS011;15453;53.692;10.168;2023-05-23T05:04:33;38.22;;;26.65;;
27985;SDS011;15453;53.692;10.168;2023-05-23T05:06:59;41.40;;;27.58;;
27985;SDS011;15453;53.692;10.168;2023-05-23T05:09:24;39.53;;;25.02;;
27985;SDS011;15453;53.692;10.168;2023-05-23T05:11:49;40.30;;;26.73;;
27985;SDS011;15453;53.692;10.168;2023-05-23T05:14:15;43.67;;;28.13;;
27985;SDS011;15453;53.692;10.168;2023-05-23T05:16:40;41.25;;;26.70;;
27985;SDS011;15453;53.692;10.168;2023-05-23T05:19:06;42.47;;;26.90;;
27985;SDS011;15453;53.692;10.168;2023-05-23T05:21:31;44.22;;;25.70;;
27985;SDS011;15453;53.692;10.168;2023-05-23T05:23:57;44.40;;;27.80;;
27985;SDS011;15453;53.692;10.168;2023-05-23T05:26:23;41.97;;;26.30;;
27985;SDS011;15453;53.692;10.168;2023-05-23T05:28:49;41.25;;;26.95;;
27985;SDS011;15453;53.692;10.168;2023-05-23T05:31:15;46.72;;;28.60;;
27985;SDS011;15453;53.692;10.168;2023-05-23T05:33:40;45.45;;;28.00;;
27985;SDS011;15453;53.692;10.168;2023-05-23T05:36:09;44.53;;;29.17;;
27985;SDS011;15453;53.692;10.168;2023-05-23T05:38:35;46.67;;;30.10;;
27985;SDS011;15453;53.692;10.168;2023-05-23T05:41:00;44.95;;;29.30;;
27985;SDS011;15453;53.692;10.168;2023-05-23T05:43:25;45.97;;;27.85;;
27985;SDS011;15453;53.692;10.168;2023-05-23T05:45:50;40.70;;;28.00;;
27985;SDS011;15453;53.692;10.168;2023-05-23T05:48:16;42.67;;;27.42;;
27985;SDS011;15453;53.692;10.168;2023-05-23T05:50:41;49.15;;;28.33;;
27985;SDS011;15453;53.692;10.168;2023-05-23T05:53:09;48.33;;;30.08;;
27985;SDS011;15453;53.692;10.168;2023-05-23T05:55:35;37.92;;;26.48;;
27985;SDS011;15453;53.692;10.168;2023-05-23T05:58:00;49.30;;;29.67;;
27985;SDS011;15453;53.692;10.168;2023-05-23T06:00:25;41.63;;;27.85;;
27985;SDS011;15453;53.692;10.168;2023-05-23T06:02:50;43.70;;;29.67;;
27985;SDS011;15453;53.692;10.168;2023-05-23T06:05:16;43.00;;;28.00;;
27985;SDS011;15453;53.692;10.168;2023-05-23T06:07:42;39.05;;;26.90;;
27985;SDS011;15453;53.692;10.168;2023-05-23T06:10:08;43.20;;;29.30;;
27985;SDS011;15453;53.692;10.168;2023-05-23T06:12:36;42.58;;;27.65;;
27985;SDS011;15453;53.692;10.168;2023-05-23T06:15:01;40.95;;;27.48;;
27985;SDS011;15453;53.692;10.168;2023-05-23T06:17:27;44.55;;;29.40;;
27985;SDS011;15453;53.692;10.168;2023-05-23T06:19:52;43.38;;;27.40;;
27985;SDS011;15453;53.692;10.168;2023-05-23T06:22:18;40.17;;;27.63;;
27985;SDS011;15453;53.692;10.168;2023-05-23T06:24:43;38.35;;;27.38;;
27985;SDS011;15453;53.692;10.168;2023-05-23T06:27:08;40.25;;;26.33;;
27985;SDS011;15453;53.692;10.168;2023-05-23T06:29:33;51.17;;;29.25;;
27985;SDS011;15453;53.692;10.168;2023-05-23T06:32:00;53.63;;;29.95;;
27985;SDS011;15453;53.692;10.168;2023-05-23T06:34:26;44.85;;;30.40;;
27985;SDS011;15453;53.692;10.168;2023-05-23T06:36:51;48.17;;;31.63;;
27985;SDS011;15453;53.692;10.168;2023-05-23T06:39:16;48.13;;;32.33;;
27985;SDS011;15453;53.692;10.168;2023-05-23T06:41:42;47.47;;;32.25;;
27985;SDS011;15453;53.692;10.168;2023-05-23T06:44:07;42.03;;;29.50;;
27985;SDS011;15453;53.692;10.168;2023-05-23T06:46:32;48.75;;;31.17;;
27985;SDS011;15453;53.692;10.168;2023-05-23T06:48:57;50.10;;;33.38;;
27985;SDS011;15453;53.692;10.168;2023-05-23T06:51:23;45.40;;;31.45;;
27985;SDS011;15453;53.692;10.168;2023-05-23T06:53:48;47.80;;;31.80;;
27985;SDS011;15453;53.692;10.168;2023-05-23T06:56:13;43.88;;;30.02;;
27985;SDS011;15453;53.692;10.168;2023-05-23T06:58:39;45.08;;;30.90;;
27985;SDS011;15453;53.692;10.168;2023-05-23T07:01:05;41.03;;;27.92;;
27985;SDS011;15453;53.692;10.168;2023-05-23T07:03:30;36.00;;;25.75;;
27985;SDS011;15453;53.692;10.168;2023-05-23T07:05:56;28.55;;;21.10;;
27985;SDS011;15453;53.692;10.168;2023-05-23T07:08:21;19.45;;;15.75;;
27985;SDS011;15453;53.692;10.168;2023-05-23T07:10:47;17.30;;;13.50;;
27985;SDS011;15453;53.692;10.168;2023-05-23T07:13:12;16.55;;;12.77;;
27985;SDS011;15453;53.692;10.168;2023-05-23T07:15:37;17.33;;;12.75;;
27985;SDS011;15453;53.692;10.168;2023-05-23T07:18:02;13.20;;;11.23;;
27985;SDS011;15453;53.692;10.168;2023-05-23T07:20:28;13.45;;;10.82;;
27985;SDS011;15453;53.692;10.168;2023-05-23T07:22:53;14.68;;;9.25;;
27985;SDS011;15453;53.692;10.168;2023-05-23T07:25:19;11.30;;;8.50;;
27985;SDS011;15453;53.692;10.168;2023-05-23T07:27:44;13.10;;;9.05;;
27985;SDS011;15453;53.692;10.168;2023-05-23T07:30:09;11.70;;;7.70;;
27985;SDS011;15453;53.692;10.168;2023-05-23T07:32:35;13.40;;;8.98;;
27985;SDS011;15453;53.692;10.168;2023-05-23T07:35:01;11.50;;;7.05;;
27985;SDS011;15453;53.692;10.168;2023-05-23T07:37:26;10.40;;;8.00;;
27985;SDS011;15453;53.692;10.168;2023-05-23T07:39:54;10.70;;;7.78;;
27985;SDS011;15453;53.692;10.168;2023-05-23T07:42:20;10.18;;;7.53;;
27985;SDS011;15453;53.692;10.168;2023-05-23T07:44:45;11.15;;;7.55;;
27985;SDS011;15453;53.692;10.168;2023-05-23T07:47:10;14.30;;;8.05;;
27985;SDS011;15453;53.692;10.168;2023-05-23T07:49:35;9.35;;;7.00;;
27985;SDS011;15453;53.692;10.168;2023-05-23T07:52:01;12.75;;;7.90;;
27985;SDS011;15453;53.692;10.168;2023-05-23T07:54:26;8.55;;;6.07;;
27985;SDS011;15453;53.692;10.168;2023-05-23T07:56:52;7.70;;;6.47;;
27985;SDS011;15453;53.692;10.168;2023-05-23T07:59:18;8.20;;;6.13;;
27985;SDS011;15453;53.692;10.168;2023-05-23T08:01:43;8.90;;;6.30;;
27985;SDS011;15453;53.692;10.168;2023-05-23T08:04:08;11.27;;;7.00;;
27985;SDS011;15453;53.692;10.168;2023-05-23T08:06:34;9.73;;;6.38;;
27985;SDS011;15453;53.692;10.168;2023-05-23T08:08:59;7.95;;;6.03;;
27985;SDS011;15453;53.692;10.168;2023-05-23T08:11:25;9.32;;;6.70;;
27985;SDS011;15453;53.692;10.168;2023-05-23T08:13:51;9.60;;;6.65;;
27985;SDS011;15453;53.692;10.168;2023-05-23T08:16:16;10.55;;;6.63;;
27985;SDS011;15453;53.692;10.168;2023-05-23T08:18:41;9.10;;;6.35;;
27985;SDS011;15453;53.692;10.168;2023-05-23T08:21:07;10.20;;;6.80;;
27985;SDS011;15453;53.692;10.168;2023-05-23T08:23:32;10.65;;;6.63;;
27985;SDS011;15453;53.692;10.168;2023-05-23T08:25:57;9.00;;;6.15;;
27985;SDS011;15453;53.692;10.168;2023-05-23T08:28:22;11.45;;;6.45;;
27985;SDS011;15453;53.692;10.168;2023-05-23T08:30:48;8.23;;;6.72;;
27985;SDS011;15453;53.692;10.168;2023-05-23T08:33:13;8.38;;;5.88;;
27985;SDS011;15453;53.692;10.168;2023-05-23T08:35:38;8.80;;;5.95;;
27985;SDS011;15453;53.692;10.168;2023-05-23T08:38:05;7.20;;;5.68;;
27985;SDS011;15453;53.692;10.168;2023-05-23T08:40:31;7.72;;;5.95;;
27985;SDS011;15453;53.692;10.168;2023-05-23T08:42:58;7.57;;;5.70;;
27985;SDS011;15453;53.692;10.168;2023-05-23T08:45:23;7.45;;;5.40;;
27985;SDS011;15453;53.692;10.168;2023-05-23T08:47:48;7.50;;;4.78;;
27985;SDS011;15453;53.692;10.168;2023-05-23T08:50:16;10.63;;;5.70;;
27985;SDS011;15453;53.692;10.168;2023-05-23T08:52:42;7.35;;;5.30;;
27985;SDS011;15453;53.692;10.168;2023-05-23T08:55:14;6.75;;;5.05;;
27985;SDS011;15453;53.692;10.168;2023-05-23T08:57:41;8.55;;;5.10;;
27985;SDS011;15453;53.692;10.168;2023-05-23T09:00:10;8.23;;;4.78;;
27985;SDS011;15453;53.692;10.168;2023-05-23T09:02:39;4.85;;;4.20;;
27985;SDS011;15453;53.692;10.168;2023-05-23T09:05:07;7.00;;;4.32;;
27985;SDS011;15453;53.692;10.168;2023-05-23T09:07:33;7.97;;;4.45;;
27985;SDS011;15453;53.692;10.168;2023-05-23T09:09:59;6.00;;;4.55;;
27985;SDS011;15453;53.692;10.168;2023-05-23T09:12:24;5.50;;;3.88;;
27985;SDS011;15453;53.692;10.168;2023-05-23T09:14:50;8.75;;;5.00;;
27985;SDS011;15453;53.692;10.168;2023-05-23T09:17:18;7.10;;;4.30;;
27985;SDS011;15453;53.692;10.168;2023-05-23T09:19:43;7.80;;;4.50;;
27985;SDS011;15453;53.692;10.168;2023-05-23T09:22:10;6.22;;;4.22;;
27985;SDS011;15453;53.692;10.168;2023-05-23T09:24:36;7.35;;;4.65;;
27985;SDS011;15453;53.692;10.168;2023-05-23T09:27:03;8.48;;;5.05;;
27985;SDS011;15453;53.692;10.168;2023-05-23T09:29:29;6.75;;;4.82;;
27985;SDS011;15453;53.692;10.168;2023-05-23T09:32:10;9.60;;;5.82;;
27985;SDS011;15453;53.692;10.168;2023-05-23T09:34:39;11.98;;;6.70;;
27985;SDS011;15453;53.692;10.168;2023-05-23T09:37:39;9.45;;;6.68;;
27985;SDS011;15453;53.692;10.168;2023-05-23T09:40:07;10.43;;;6.63;;
27985;SDS011;15453;53.692;10.168;2023-05-23T09:42:34;9.95;;;6.05;;
27985;SDS011;15453;53.692;10.168;2023-05-23T09:45:00;10.05;;;6.05;;
27985;SDS011;15453;53.692;10.168;2023-05-23T09:47:26;9.48;;;6.00;;
27985;SDS011;15453;53.692;10.168;2023-05-23T09:49:51;10.93;;;5.72;;
27985;SDS011;15453;53.692;10.168;2023-05-23T09:52:16;7.50;;;5.50;;
27985;SDS011;15453;53.692;10.168;2023-05-23T09:54:44;8.50;;;5.55;;
27985;SDS011;15453;53.692;10.168;2023-05-23T09:57:10;8.57;;;5.25;;
27985;SDS011;15453;53.692;10.168;2023-05-23T09:59:40;8.05;;;5.32;;
27985;SDS011;15453;53.692;10.168;2023-05-23T10:02:06;6.72;;;4.47;;
27985;SDS011;15453;53.692;10.168;2023-05-23T10:04:35;6.07;;;4.32;;
27985;SDS011;15453;53.692;10.168;2023-05-23T10:07:12;7.88;;;4.18;;
27985;SDS011;15453;53.692;10.168;2023-05-23T10:09:41;6.72;;;3.95;;
27985;SDS011;15453;53.692;10.168;2023-05-23T10:15:03;4.45;;;2.97;;
27985;SDS011;15453;53.692;10.168;2023-05-23T10:18:17;4.80;;;3.40;;
27985;SDS011;15453;53.692;10.168;2023-05-23T10:20:25;4.85;;;3.38;;
27985;SDS011;15453;53.692;10.168;2023-05-23T10:22:55;5.18;;;3.13;;
27985;SDS011;15453;53.692;10.168;2023-05-23T10:25:23;5.65;;;3.13;;
27985;SDS011;15453;53.692;10.168;2023-05-23T10:27:48;5.55;;;3.28;;
27985;SDS011;15453;53.692;10.168;2023-05-23T10:30:14;7.68;;;3.40;;
27985;SDS011;15453;53.692;10.168;2023-05-23T10:32:39;4.47;;;2.85;;
27985;SDS011;15453;53.692;10.168;2023-05-23T10:35:52;7.30;;;3.53;;
27985;SDS011;15453;53.692;10.168;2023-05-23T10:38:27;5.78;;;3.50;;
27985;SDS011;15453;53.692;10.168;2023-05-23T10:46:51;9.07;;;3.55;;
27985;SDS011;15453;53.692;10.168;2023-05-23T10:49:32;11.73;;;3.60;;
27985;SDS011;15453;53.692;10.168;2023-05-23T10:52:01;6.53;;;2.80;;
27985;SDS011;15453;53.692;10.168;2023-05-23T10:54:27;5.53;;;2.70;;
27985;SDS011;15453;53.692;10.168;2023-05-23T10:57:02;5.38;;;2.40;;
27985;SDS011;15453;53.692;10.168;2023-05-23T10:59:28;8.18;;;2.97;;
27985;SDS011;15453;53.692;10.168;2023-05-23T11:01:54;5.85;;;2.88;;
27985;SDS011;15453;53.692;10.168;2023-05-23T11:04:26;6.00;;;2.70;;
27985;SDS011;15453;53.692;10.168;2023-05-23T11:06:55;6.93;;;2.80;;
27985;SDS011;15453;53.692;10.168;2023-05-23T11:09:21;9.63;;;3.17;;
27985;SDS011;15453;53.692;10.168;2023-05-23T11:14:19;8.65;;;3.70;;
27985;SDS011;15453;53.692;10.168;2023-05-23T11:16:55;10.18;;;3.10;;
27985;SDS011;15453;53.692;10.168;2023-05-23T11:19:21;9.15;;;2.75;;
27985;SDS011;15453;53.692;10.168;2023-05-23T11:21:53;9.82;;;2.83;;
27985;SDS011;15453;53.692;10.168;2023-05-23T11:24:21;5.50;;;2.75;;
27985;SDS011;15453;53.692;10.168;2023-05-23T11:26:59;7.68;;;2.95;;
27985;SDS011;15453;53.692;10.168;2023-05-23T11:29:25;8.38;;;3.10;;
27985;SDS011;15453;53.692;10.168;2023-05-23T11:31:52;7.15;;;3.08;;
27985;SDS011;15453;53.692;10.168;2023-05-23T11:34:17;11.07;;;3.50;;
27985;SDS011;15453;53.692;10.168;2023-05-23T11:36:43;8.43;;;3.50;;
27985;SDS011;15453;53.692;10.168;2023-05-23T11:39:09;6.55;;;2.80;;
27985;SDS011;15453;53.692;10.168;2023-05-23T11:41:34;10.65;;;3.40;;
27985;SDS011;15453;53.692;10.168;2023-05-23T11:44:00;10.38;;;3.40;;
27985;SDS011;15453;53.692;10.168;2023-05-23T11:46:25;10.88;;;3.20;;
27985;SDS011;15453;53.692;10.168;2023-05-23T11:48:51;12.15;;;3.40;;
27985;SDS011;15453;53.692;10.168;2023-05-23T11:51:17;14.10;;;3.50;;
27985;SDS011;15453;53.692;10.168;2023-05-23T11:53:43;10.90;;;3.25;;
27985;SDS011;15453;53.692;10.168;2023-05-23T11:56:09;13.48;;;3.47;;
27985;SDS011;15453;53.692;10.168;2023-05-23T11:58:36;7.63;;;2.85;;
27985;SDS011;15453;53.692;10.168;2023-05-23T12:03:32;10.23;;;3.22;;
27985;SDS011;15453;53.692;10.168;2023-05-23T12:05:58;10.80;;;2.85;;
27985;SDS011;15453;53.692;10.168;2023-05-23T12:08:25;7.95;;;2.60;;
27985;SDS011;15453;53.692;10.168;2023-05-23T12:10:51;7.68;;;2.80;;
27985;SDS011;15453;53.692;10.168;2023-05-23T12:13:24;17.48;;;3.50;;
27985;SDS011;15453;53.692;10.168;2023-05-23T12:15:56;12.15;;;3.45;;
27985;SDS011;15453;53.692;10.168;2023-05-23T12:18:24;13.15;;;3.58;;
27985;SDS011;15453;53.692;10.168;2023-05-23T12:20:53;10.40;;;3.60;;
27985;SDS011;15453;53.692;10.168;2023-05-23T12:23:21;13.55;;;3.33;;
27985;SDS011;15453;53.692;10.168;2023-05-23T12:25:53;11.43;;;3.40;;
27985;SDS011;15453;53.692;10.168;2023-05-23T12:28:20;10.93;;;3.40;;
27985;SDS011;15453;53.692;10.168;2023-05-23T12:30:57;17.05;;;3.42;;
27985;SDS011;15453;53.692;10.168;2023-05-23T12:33:23;12.88;;;3.78;;
27985;SDS011;15453;53.692;10.168;2023-05-23T12:35:49;11.88;;;3.70;;
27985;SDS011;15453;53.692;10.168;2023-05-23T12:38:14;11.02;;;3.53;;
27985;SDS011;15453;53.692;10.168;2023-05-23T12:40:41;15.73;;;4.18;;
27985;SDS011;15453;53.692;10.168;2023-05-23T12:43:07;16.02;;;4.15;;
27985;SDS011;15453;53.692;10.168;2023-05-23T12:45:34;10.93;;;3.20;;
27985;SDS011;15453;53.692;10.168;2023-05-23T12:48:01;10.70;;;3.42;;
27985;SDS011;15453;53.692;10.168;2023-05-23T12:50:26;11.15;;;3.40;;
27985;SDS011;15453;53.692;10.168;2023-05-23T12:52:51;12.18;;;3.33;;
27985;SDS011;15453;53.692;10.168;2023-05-23T12:55:17;11.60;;;3.05;;
27985;SDS011;15453;53.692;10.168;2023-05-23T12:57:42;11.90;;;4.40;;
27985;SDS011;15453;53.692;10.168;2023-05-23T13:00:08;10.88;;;3.80;;
27985;SDS011;15453;53.692;10.168;2023-05-23T13:02:34;13.25;;;3.85;;
27985;SDS011;15453;53.692;10.168;2023-05-23T13:04:59;7.68;;;2.95;;
27985;SDS011;15453;53.692;10.168;2023-05-23T13:07:24;14.05;;;3.40;;
27985;SDS011;15453;53.692;10.168;2023-05-23T13:09:49;13.52;;;3.95;;
27985;SDS011;15453;53.692;10.168;2023-05-23T13:12:15;16.13;;;3.20;;
27985;SDS011;15453;53.692;10.168;2023-05-23T13:14:40;13.65;;;4.30;;
27985;SDS011;15453;53.692;10.168;2023-05-23T13:17:05;16.40;;;3.90;;
27985;SDS011;15453;53.692;10.168;2023-05-23T13:19:31;12.68;;;3.40;;
27985;SDS011;15453;53.692;10.168;2023-05-23T13:21:57;12.00;;;3.63;;
27985;SDS011;15453;53.692;10.168;2023-05-23T13:24:22;10.95;;;3.15;;
27985;SDS011;15453;53.692;10.168;2023-05-23T13:26:48;13.10;;;3.50;;
27985;SDS011;15453;53.692;10.168;2023-05-23T13:29:13;11.35;;;3.72;;
27985;SDS011;15453;53.692;10.168;2023-05-23T13:31:38;14.23;;;4.00;;
27985;SDS011;15453;53.692;10.168;2023-05-23T13:34:04;14.50;;;4.43;;
27985;SDS011;15453;53.692;10.168;2023-05-23T13:36:29;14.30;;;3.83;;
27985;SDS011;15453;53.692;10.168;2023-05-23T13:38:54;10.80;;;3.38;;
27985;SDS011;15453;53.692;10.168;2023-05-23T13:41:20;10.90;;;3.72;;
27985;SDS011;15453;53.692;10.168;2023-05-23T13:43:45;12.60;;;4.00;;
27985;SDS011;15453;53.692;10.168;2023-05-23T13:46:11;17.40;;;3.80;;
27985;SDS011;15453;53.692;10.168;2023-05-23T13:48:37;12.52;;;3.53;;
27985;SDS011;15453;53.692;10.168;2023-05-23T13:51:02;11.27;;;2.88;;
27985;SDS011;15453;53.692;10.168;2023-05-23T13:53:28;11.35;;;3.33;;
27985;SDS011;15453;53.692;10.168;2023-05-23T13:55:54;14.48;;;4.28;;
27985;SDS011;15453;53.692;10.168;2023-05-23T13:58:19;16.92;;;3.67;;
27985;SDS011;15453;53.692;10.168;2023-05-23T14:00:44;8.15;;;3.40;;
27985;SDS011;15453;53.692;10.168;2023-05-23T14:03:10;12.98;;;3.40;;
27985;SDS011;15453;53.692;10.168;2023-05-23T14:05:35;12.23;;;3.08;;
27985;SDS011;15453;53.692;10.168;2023-05-23T14:08:01;12.50;;;3.20;;
27985;SDS011;15453;53.692;10.168;2023-05-23T14:10:26;13.82;;;3.50;;
27985;SDS011;15453;53.692;10.168;2023-05-23T14:12:53;15.57;;;3.70;;
27985;SDS011;15453;53.692;10.168;2023-05-23T14:15:18;13.10;;;3.47;;
27985;SDS011;15453;53.692;10.168;2023-05-23T14:17:44;16.98;;;4.80;;
27985;SDS011;15453;53.692;10.168;2023-05-23T14:20:09;12.38;;;4.10;;
27985;SDS011;15453;53.692;10.168;2023-05-23T14:22:35;13.57;;;3.47;;
27985;SDS011;15453;53.692;10.168;2023-05-23T14:25:00;14.05;;;3.58;;
27985;SDS011;15453;53.692;10.168;2023-05-23T14:27:25;10.80;;;3.08;;
27985;SDS011;15453;53.692;10.168;2023-05-23T14:29:51;14.45;;;3.47;;
27985;SDS011;15453;53.692;10.168;2023-05-23T14:32:16;14.43;;;3.70;;
27985;SDS011;15453;53.692;10.168;2023-05-23T14:34:41;14.88;;;3.42;;
27985;SDS011;15453;53.692;10.168;2023-05-23T14:37:07;15.20;;;3.53;;
27985;SDS011;15453;53.692;10.168;2023-05-23T14:39:32;11.13;;;3.25;;